Cape Romanzof LRRS Airport Cape Romanzof US
ICAO: PACZ
IATA:
Category: Medium
Scheduled Services:

Elevation: 464 ft
TransAlt. 18000 ft.

Airport Communications:
ANCHORAGE ARTCC:124.5
ANCHORAGE CNTR:132.5
KENAI RDO:122.1
INFO:126.2

PACZ Zoom In..

Runways:

(A) RW 02 length 3925 ft width 161 ft
---- / hdg 16

(B) RW 20 length 3925 ft width 161 ft
---- / hdg 196

Location; PACZ
Day. 20 / Time. 16.55 Zulu
* Altimeter: 29.54
* Temperature: 01° c. 33.8°f.
* Wind from: 050° Speed 20 kn.
Dewpoint: 01° c.
Visibility: M// Statute Miles.
Conditions: Light Rain.Conditions: Fog.

PACZ 201655Z AUTO 05020KT M1/4SM -RA FG VV002 01/01 A2954 RMK AO2 RAB1544 SLP010 P0000 T00120013


Wind From 050°
Speed 20 kn.

 
 
jpsmedia.com for Web Design SOUNDCLOUD worldairports.se 2018   terms of use